< < Back
Terminal Aerodrome Forecast


Current Version              Previous Versions:   1  2  3  4  5  6  7  8  9  

Terminal Aerodrome Forecast

328
FTUS42 KCHS 051135
TAFSAV
TAF
KSAV 051135Z 0512/0612 VRB04KT P6SM SCT250
     FM051400 06011KT P6SM SCT040
     FM051700 10015G21KT P6SM SCT060
     FM060200 VRB04KT P6SM SCT020 BKN250=



Latest METAR

774
SAUS80 KWBC 061300 RRB
MTRSAV
METAR KSAV 061253Z 03007KT 10SM BKN042 BKN100 OVC250 19/16 A3016 RMK AO2
SLP214 T01890161


USA.gov is the U.S. government's official web portal to all federal, state and local government web resources and services.